createdAt,value
2019-05-05T00:01:45.059Z,9.20
2019-05-05T00:04:16.708Z,9.20
2019-05-05T00:06:46.617Z,9.20
2019-05-05T00:09:16.679Z,9.10
2019-05-05T00:11:48.000Z,9.10
2019-05-05T00:14:19.403Z,9.10
2019-05-05T00:16:50.793Z,9.00
2019-05-05T00:19:32.223Z,9.10
2019-05-05T00:21:55.138Z,9.10
2019-05-05T00:24:25.020Z,9.10
2019-05-05T00:26:55.491Z,9.10
2019-05-05T00:29:25.389Z,9.00
2019-05-05T00:31:55.475Z,9.00
2019-05-05T00:34:25.323Z,8.90
2019-05-05T00:36:55.375Z,8.90
2019-05-05T00:39:26.352Z,8.90
2019-05-05T00:41:56.172Z,8.90
2019-05-05T00:44:26.124Z,8.90
2019-05-05T00:46:57.945Z,8.90
2019-05-05T00:49:29.119Z,8.90
2019-05-05T00:51:59.731Z,9.00
2019-05-05T00:54:29.583Z,9.00
2019-05-05T00:56:59.335Z,9.00
2019-05-05T00:59:30.404Z,8.90
2019-05-05T01:02:01.844Z,8.90
2019-05-05T01:04:35.131Z,8.90
2019-05-05T01:07:05.095Z,9.00
2019-05-05T01:09:36.920Z,9.00
2019-05-05T01:12:07.528Z,8.90
2019-05-05T01:14:37.300Z,8.80
2019-05-05T01:17:07.175Z,8.80
2019-05-05T01:19:36.907Z,8.70
2019-05-05T01:22:06.712Z,8.80
2019-05-05T01:24:36.993Z,8.80
2019-05-05T01:27:06.908Z,8.80
2019-05-05T01:29:36.715Z,8.90
2019-05-05T01:32:08.183Z,8.80
2019-05-05T01:34:39.532Z,8.90
2019-05-05T01:37:12.116Z,8.90
2019-05-05T01:39:45.220Z,8.90
2019-05-05T01:42:16.900Z,8.90
2019-05-05T01:44:46.659Z,8.90
2019-05-05T01:47:16.503Z,8.90
2019-05-05T01:49:46.376Z,8.90
2019-05-05T01:52:16.313Z,8.80
2019-05-05T01:54:46.118Z,8.80
2019-05-05T01:57:16.109Z,8.80
2019-05-05T01:59:45.880Z,8.80
2019-05-05T02:02:16.703Z,8.80
2019-05-05T02:04:46.663Z,8.80
2019-05-05T02:07:16.494Z,8.70
2019-05-05T02:09:46.390Z,8.80
2019-05-05T02:12:16.243Z,8.70
2019-05-05T02:14:46.126Z,8.70
2019-05-05T02:17:15.915Z,8.70
2019-05-05T02:19:45.905Z,8.70
2019-05-05T02:22:15.744Z,8.60
2019-05-05T02:24:45.656Z,8.60
2019-05-05T02:27:16.195Z,8.60
2019-05-05T02:29:47.555Z,8.60
2019-05-05T02:32:19.008Z,8.50
2019-05-05T02:34:50.389Z,8.50
2019-05-05T02:37:20.432Z,8.50
2019-05-05T02:39:58.050Z,8.60
2019-05-05T02:42:25.016Z,8.50
2019-05-05T02:44:57.878Z,8.50
2019-05-05T02:47:34.652Z,8.50
2019-05-05T02:50:06.464Z,8.50
2019-05-05T02:52:39.645Z,8.50
2019-05-05T02:55:10.722Z,8.60
2019-05-05T02:57:41.295Z,8.50
2019-05-05T03:00:13.507Z,8.50
2019-05-05T03:02:43.562Z,8.60
2019-05-05T03:05:14.289Z,8.60
2019-05-05T03:07:44.523Z,8.60
2019-05-05T03:10:14.896Z,8.60
2019-05-05T03:12:45.302Z,8.50
2019-05-05T03:15:18.008Z,8.50
2019-05-05T03:17:47.880Z,8.60
2019-05-05T03:20:17.751Z,8.50
2019-05-05T03:22:47.801Z,8.50
2019-05-05T03:25:19.188Z,8.50
2019-05-05T03:27:49.015Z,8.60
2019-05-05T03:30:20.380Z,8.60
2019-05-05T03:32:50.237Z,8.70
2019-05-05T03:35:20.357Z,8.70
2019-05-05T03:37:50.361Z,8.60
2019-05-05T03:40:23.755Z,8.60
2019-05-05T03:42:54.939Z,8.60
2019-05-05T03:45:26.416Z,8.60
2019-05-05T03:47:56.653Z,8.60
2019-05-05T03:50:27.180Z,8.70
2019-05-05T03:52:57.205Z,8.60
2019-05-05T03:55:27.092Z,8.70
2019-05-05T03:57:57.264Z,8.60
2019-05-05T04:00:29.910Z,8.70
2019-05-05T04:03:01.325Z,8.80
2019-05-05T04:05:34.030Z,8.70
2019-05-05T04:08:04.032Z,8.70
2019-05-05T04:10:34.870Z,8.80
2019-05-05T04:13:04.840Z,8.80
2019-05-05T04:15:36.081Z,8.80
2019-05-05T04:18:07.583Z,8.80
2019-05-05T04:20:37.246Z,8.80
2019-05-05T04:23:07.068Z,8.80
2019-05-05T04:25:36.881Z,8.70
2019-05-05T04:28:06.708Z,8.80
2019-05-05T04:30:36.336Z,8.80
2019-05-05T04:33:06.292Z,8.80
2019-05-05T04:35:36.163Z,8.80
2019-05-05T04:38:06.254Z,8.80
2019-05-05T04:40:36.191Z,8.80
2019-05-05T04:43:05.958Z,8.80
2019-05-05T04:45:35.779Z,8.90
2019-05-05T04:48:07.180Z,8.80
2019-05-05T04:50:38.636Z,8.80
2019-05-05T04:53:09.840Z,8.80
2019-05-05T04:55:39.498Z,8.80
2019-05-05T04:58:09.295Z,8.80
2019-05-05T05:00:39.179Z,8.80
2019-05-05T05:03:13.332Z,8.80
2019-05-05T05:05:44.644Z,8.80
2019-05-05T05:08:14.513Z,8.80
2019-05-05T05:10:44.210Z,8.80
2019-05-05T05:13:14.055Z,8.80
2019-05-05T05:15:44.639Z,8.70
2019-05-05T05:18:17.314Z,8.60
2019-05-05T05:20:48.242Z,8.70
2019-05-05T05:23:18.071Z,8.70
2019-05-05T05:25:47.808Z,8.70
2019-05-05T05:28:17.574Z,8.60
2019-05-05T05:31:13.957Z,8.60
2019-05-05T05:33:44.062Z,8.60
2019-05-05T05:36:14.449Z,8.50
2019-05-05T05:38:46.971Z,8.50
2019-05-05T05:41:18.411Z,8.50
2019-05-05T05:43:49.719Z,8.40
2019-05-05T05:46:21.181Z,8.40
2019-05-05T05:48:53.935Z,8.30
2019-05-05T05:51:24.120Z,8.30
2019-05-05T05:53:54.416Z,8.30
2019-05-05T05:56:25.001Z,8.30
2019-05-05T05:58:56.072Z,8.30
2019-05-05T06:01:26.000Z,8.30
2019-05-05T06:03:55.737Z,8.30
2019-05-05T06:06:25.401Z,8.30
2019-05-05T06:08:55.269Z,8.30
2019-05-05T06:11:25.195Z,8.30
2019-05-05T06:13:55.057Z,8.40
2019-05-05T06:16:25.842Z,8.40
2019-05-05T06:18:55.443Z,8.40
2019-05-05T06:21:25.216Z,8.50
2019-05-05T06:23:54.986Z,8.50
2019-05-05T06:26:24.828Z,8.40
2019-05-05T06:28:54.602Z,8.50
2019-05-05T06:31:24.583Z,8.40
2019-05-05T06:33:55.403Z,8.40
2019-05-05T06:36:25.184Z,8.40
2019-05-05T06:38:54.754Z,8.40
2019-05-05T06:41:26.011Z,8.50
2019-05-05T06:43:57.543Z,8.50
2019-05-05T06:46:28.948Z,8.50
2019-05-05T06:48:58.679Z,8.40
2019-05-05T06:51:28.361Z,8.50
2019-05-05T06:53:58.184Z,8.50
2019-05-05T06:56:28.000Z,8.40
2019-05-05T06:58:57.803Z,8.50
2019-05-05T07:01:27.576Z,8.50
2019-05-05T07:03:57.274Z,8.40
2019-05-05T07:06:26.747Z,8.40
2019-05-05T07:08:56.323Z,8.50
2019-05-05T07:11:26.182Z,8.50
2019-05-05T07:13:56.078Z,8.70
2019-05-05T07:16:25.903Z,8.60
2019-05-05T07:18:58.655Z,8.60
2019-05-05T07:21:28.428Z,8.60
2019-05-05T07:23:58.255Z,8.70
2019-05-05T07:26:28.157Z,8.70
2019-05-05T07:28:58.156Z,8.70
2019-05-05T07:31:27.926Z,8.80
2019-05-05T07:33:57.569Z,8.80
2019-05-05T07:36:28.915Z,8.80
2019-05-05T07:38:58.768Z,8.70
2019-05-05T07:41:28.663Z,8.70
2019-05-05T07:43:58.787Z,8.80
2019-05-05T07:46:28.687Z,8.80
2019-05-05T07:48:58.573Z,8.90
2019-05-05T07:51:28.296Z,8.90
2019-05-05T07:53:58.141Z,8.90
2019-05-05T07:56:27.994Z,9.10
2019-05-05T07:58:57.861Z,9.00
2019-05-05T08:01:27.624Z,9.10
2019-05-05T08:03:57.437Z,9.10
2019-05-05T08:06:27.407Z,9.20
2019-05-05T08:08:57.917Z,9.20
2019-05-05T08:11:27.808Z,9.20
2019-05-05T08:13:57.646Z,9.10
2019-05-05T08:16:28.836Z,9.10
2019-05-05T08:19:00.204Z,9.00
2019-05-05T08:21:30.048Z,9.00
2019-05-05T08:24:01.926Z,9.10
2019-05-05T08:29:20.416Z,9.00
2019-05-05T08:31:53.592Z,9.10
2019-05-05T08:34:24.448Z,9.10
2019-05-05T08:36:54.433Z,9.20
2019-05-05T08:39:24.550Z,9.10
2019-05-05T08:41:54.516Z,9.10
2019-05-05T08:44:24.415Z,9.10
2019-05-05T08:46:54.225Z,9.10
2019-05-05T08:49:24.525Z,9.10
2019-05-05T08:51:54.767Z,9.20
2019-05-05T08:54:24.781Z,9.20
2019-05-05T08:56:55.052Z,9.20
2019-05-05T08:59:26.125Z,9.10
2019-05-05T09:01:55.964Z,9.20
2019-05-05T09:04:25.734Z,9.20
2019-05-05T09:06:56.627Z,9.20
2019-05-05T09:09:28.611Z,9.10
2019-05-05T09:11:58.540Z,9.10
2019-05-05T09:14:28.383Z,9.10
2019-05-05T09:16:58.108Z,9.10
2019-05-05T09:19:27.813Z,9.10
2019-05-05T09:21:57.586Z,9.10
2019-05-05T09:24:29.035Z,9.00
2019-05-05T09:27:00.414Z,9.00
2019-05-05T09:29:31.836Z,9.00
2019-05-05T09:32:03.908Z,9.10
2019-05-05T09:34:34.134Z,9.10
2019-05-05T09:37:05.207Z,9.20
2019-05-05T09:39:36.192Z,9.20
2019-05-05T09:42:06.095Z,9.20
2019-05-05T09:44:35.943Z,9.30
2019-05-05T09:47:06.771Z,9.30
2019-05-05T09:49:36.752Z,9.30
2019-05-05T09:52:06.660Z,9.40
2019-05-05T09:54:36.708Z,9.50
2019-05-05T09:57:07.669Z,9.60
2019-05-05T09:59:40.148Z,9.60
2019-05-05T10:02:08.907Z,9.70
2019-05-05T10:04:38.832Z,9.90
2019-05-05T10:07:08.709Z,9.90
2019-05-05T10:09:38.620Z,10.10
2019-05-05T10:12:08.475Z,10.20
2019-05-05T10:14:38.342Z,10.20
2019-05-05T10:17:08.105Z,10.30
2019-05-05T10:19:37.835Z,10.40
2019-05-05T10:22:07.610Z,10.40
2019-05-05T10:24:39.029Z,10.70
2019-05-05T10:27:08.902Z,11.10
2019-05-05T10:29:38.640Z,11.50
2019-05-05T10:32:08.590Z,11.90
2019-05-05T10:34:38.445Z,12.10
2019-05-05T10:37:08.396Z,12.50
2019-05-05T10:39:39.851Z,12.80
2019-05-05T10:42:09.660Z,12.90
2019-05-05T10:44:39.371Z,12.80
2019-05-05T10:47:09.200Z,13.00
2019-05-05T10:49:39.119Z,13.00
2019-05-05T10:52:09.000Z,13.20
2019-05-05T10:54:44.038Z,13.10
2019-05-05T10:57:10.212Z,13.10
2019-05-05T10:59:39.884Z,13.00
2019-05-05T11:02:09.830Z,12.90
2019-05-05T11:04:39.669Z,12.70
2019-05-05T11:07:09.435Z,12.40
2019-05-05T11:09:39.938Z,12.40
2019-05-05T11:12:09.822Z,12.50
2019-05-05T11:14:44.278Z,12.60
2019-05-05T11:17:14.609Z,12.80
2019-05-05T11:19:44.732Z,12.90
2019-05-05T11:22:14.703Z,12.90
2019-05-05T11:24:57.666Z,13.00
2019-05-05T11:27:16.321Z,13.30
2019-05-05T11:29:47.755Z,13.50
2019-05-05T11:32:19.221Z,13.40
2019-05-05T11:34:48.967Z,13.50
2019-05-05T11:37:19.189Z,13.80
2019-05-05T11:39:48.979Z,14.00
2019-05-05T11:42:18.769Z,14.00
2019-05-05T11:44:48.672Z,13.90
2019-05-05T11:47:18.410Z,13.70
2019-05-05T11:49:48.139Z,13.60
2019-05-05T11:52:17.888Z,13.40
2019-05-05T11:54:47.702Z,13.30
2019-05-05T11:57:17.279Z,13.20
2019-05-05T11:59:47.013Z,13.20
2019-05-05T12:02:16.751Z,13.20
2019-05-05T12:04:46.547Z,13.10
2019-05-05T12:07:18.216Z,13.20
2019-05-05T12:09:50.132Z,13.20
2019-05-05T12:12:20.699Z,13.10
2019-05-05T12:14:53.902Z,13.10
2019-05-05T12:17:26.652Z,13.10
2019-05-05T12:19:56.412Z,13.10
2019-05-05T12:22:26.371Z,13.10
2019-05-05T12:24:56.160Z,13.10
2019-05-05T12:27:27.541Z,12.90
2019-05-05T12:29:57.516Z,13.00
2019-05-05T12:32:27.263Z,13.30
2019-05-05T12:34:57.112Z,13.30
2019-05-05T12:37:27.057Z,13.30
2019-05-05T12:39:56.922Z,13.30
2019-05-05T12:42:26.736Z,13.30
2019-05-05T12:44:58.178Z,13.50
2019-05-05T12:47:29.524Z,13.60
2019-05-05T12:49:59.419Z,13.80
2019-05-05T12:52:29.216Z,14.00
2019-05-05T12:55:04.968Z,13.90
2019-05-05T12:57:34.372Z,13.80
2019-05-05T13:00:07.911Z,13.90
2019-05-05T13:02:37.820Z,14.00
2019-05-05T13:05:08.154Z,14.10
2019-05-05T13:07:39.090Z,14.10
2019-05-05T13:10:10.680Z,14.00
2019-05-05T13:12:40.559Z,14.00
2019-05-05T13:15:10.633Z,14.40
2019-05-05T13:17:40.487Z,15.00
2019-05-05T13:20:13.910Z,16.20
2019-05-05T13:22:45.201Z,17.30
2019-05-05T13:25:16.774Z,18.10
2019-05-05T13:27:46.538Z,17.90
2019-05-05T13:30:16.782Z,17.60
2019-05-05T13:32:46.692Z,17.70
2019-05-05T13:35:16.528Z,17.60
2019-05-05T13:37:46.301Z,16.90
2019-05-05T13:40:17.152Z,16.70
2019-05-05T13:42:47.062Z,16.60
2019-05-05T13:48:06.736Z,16.90
2019-05-05T13:50:38.237Z,16.90
2019-05-05T13:53:08.167Z,16.60
2019-05-05T13:55:38.040Z,16.40
2019-05-05T13:58:08.929Z,15.80
2019-05-05T14:00:39.445Z,15.30
2019-05-05T14:03:09.587Z,15.00
2019-05-05T14:05:39.366Z,15.30
2019-05-05T14:08:14.730Z,15.90
2019-05-05T14:10:45.632Z,16.50
2019-05-05T14:13:28.309Z,16.30
2019-05-05T14:15:58.122Z,15.90
2019-05-05T14:18:28.183Z,15.50
2019-05-05T14:20:58.034Z,15.20
2019-05-05T14:23:29.075Z,14.90
2019-05-05T14:25:58.979Z,15.00
2019-05-05T14:28:28.956Z,15.00
2019-05-05T14:31:00.271Z,14.80
2019-05-05T14:33:31.806Z,14.60
2019-05-05T14:36:04.832Z,14.50
2019-05-05T14:38:36.469Z,14.60
2019-05-05T14:41:06.768Z,14.60
2019-05-05T14:43:37.722Z,14.60
2019-05-05T14:46:07.616Z,14.20
2019-05-05T14:48:37.424Z,14.20
2019-05-05T14:51:07.262Z,14.40
2019-05-05T14:53:37.205Z,14.80
2019-05-05T14:56:07.083Z,14.60
2019-05-05T14:58:36.883Z,14.40
2019-05-05T15:01:06.780Z,14.20
2019-05-05T15:03:38.270Z,13.80
2019-05-05T15:06:09.747Z,13.60
2019-05-05T15:08:41.146Z,13.40
2019-05-05T15:11:14.247Z,13.20
2019-05-05T15:13:44.046Z,13.40
2019-05-05T15:16:14.913Z,13.80
2019-05-05T15:18:44.794Z,14.20
2019-05-05T15:21:14.627Z,14.90
2019-05-05T15:23:44.455Z,15.40
2019-05-05T15:26:14.128Z,16.00
2019-05-05T15:28:48.003Z,16.40
2019-05-05T15:31:17.833Z,16.30
2019-05-05T15:33:46.896Z,16.00
2019-05-05T15:36:16.657Z,16.00
2019-05-05T15:38:46.451Z,15.80
2019-05-05T15:41:16.211Z,15.80
2019-05-05T15:43:46.119Z,15.80
2019-05-05T15:46:16.043Z,15.60
2019-05-05T15:48:45.890Z,15.40
2019-05-05T15:51:15.856Z,15.30
2019-05-05T15:53:45.760Z,15.10
2019-05-05T15:56:15.585Z,15.10
2019-05-05T15:58:45.347Z,15.10
2019-05-05T16:01:14.915Z,15.00
2019-05-05T16:03:45.143Z,14.80
2019-05-05T16:06:15.109Z,14.70
2019-05-05T16:08:44.873Z,14.60
2019-05-05T16:11:14.683Z,14.40
2019-05-05T16:13:44.289Z,14.30
2019-05-05T16:16:15.710Z,14.20
2019-05-05T16:18:48.639Z,14.20
2019-05-05T16:21:20.130Z,14.20
2019-05-05T16:23:51.409Z,14.20
2019-05-05T16:26:21.321Z,14.20
2019-05-05T16:28:55.041Z,14.10
2019-05-05T16:31:23.597Z,14.00
2019-05-05T16:33:53.591Z,14.00
2019-05-05T16:36:24.315Z,14.00
2019-05-05T16:38:55.250Z,13.90
2019-05-05T16:41:24.987Z,13.80
2019-05-05T16:43:54.770Z,13.80
2019-05-05T16:46:24.406Z,13.60
2019-05-05T16:48:54.381Z,13.50
2019-05-05T16:51:25.858Z,13.50
2019-05-05T16:53:56.674Z,13.40
2019-05-05T16:56:26.574Z,13.40
2019-05-05T16:58:56.407Z,13.30
2019-05-05T17:01:26.313Z,13.10
2019-05-05T17:04:08.444Z,13.10
2019-05-05T17:06:27.451Z,13.00
2019-05-05T17:08:57.343Z,12.90
2019-05-05T17:11:27.092Z,12.80
2019-05-05T17:13:58.609Z,12.70
2019-05-05T17:16:30.060Z,12.60
2019-05-05T17:19:01.461Z,12.40
2019-05-05T17:21:34.121Z,12.30
2019-05-05T17:24:03.954Z,12.10
2019-05-05T17:26:35.536Z,12.00
2019-05-05T17:29:05.559Z,11.80
2019-05-05T17:31:35.400Z,11.70
2019-05-05T17:34:05.516Z,11.70
2019-05-05T17:36:35.423Z,11.70
2019-05-05T17:39:08.606Z,11.50
2019-05-05T17:41:41.636Z,11.50
2019-05-05T17:44:14.104Z,11.40
2019-05-05T17:46:46.663Z,11.30
2019-05-05T17:49:18.062Z,11.20
2019-05-05T17:51:49.588Z,11.10
2019-05-05T17:54:21.062Z,11.10
2019-05-05T17:56:52.492Z,10.90
2019-05-05T17:59:23.675Z,10.80
2019-05-05T18:01:54.030Z,10.70
2019-05-05T18:04:24.096Z,10.50
2019-05-05T18:06:55.823Z,10.40
2019-05-05T18:09:27.211Z,10.30
2019-05-05T18:11:58.623Z,10.20
2019-05-05T18:14:30.451Z,10.10
2019-05-05T18:17:00.463Z,10.00
2019-05-05T18:19:30.341Z,9.90
2019-05-05T18:22:00.139Z,9.80
2019-05-05T18:24:29.851Z,9.80
2019-05-05T18:26:59.632Z,9.70
2019-05-05T18:29:29.472Z,9.70
2019-05-05T18:31:59.396Z,9.60
2019-05-05T18:34:29.055Z,9.50
2019-05-05T18:36:58.684Z,9.40
2019-05-05T18:39:28.426Z,9.40
2019-05-05T18:41:59.803Z,9.30
2019-05-05T18:44:31.208Z,9.20
2019-05-05T18:47:03.608Z,9.10
2019-05-05T18:49:33.730Z,9.00
2019-05-05T18:52:04.118Z,8.90
2019-05-05T18:54:34.051Z,8.90
2019-05-05T18:57:05.315Z,8.90
2019-05-05T18:59:35.621Z,8.80
2019-05-05T19:02:07.599Z,8.80
2019-05-05T19:04:38.924Z,8.70
2019-05-05T19:07:10.570Z,8.60
2019-05-05T19:09:51.190Z,8.60
2019-05-05T19:12:11.662Z,8.50
2019-05-05T19:14:41.502Z,8.50
2019-05-05T19:17:11.213Z,8.50
2019-05-05T19:19:44.670Z,8.40
2019-05-05T19:22:15.743Z,8.40
2019-05-05T19:24:45.630Z,8.30
2019-05-05T19:27:15.424Z,8.30
2019-05-05T19:29:46.356Z,8.30
2019-05-05T19:32:16.508Z,8.30
2019-05-05T19:34:46.147Z,8.20
2019-05-05T19:37:15.990Z,8.10
2019-05-05T19:39:45.920Z,8.10
2019-05-05T19:42:15.763Z,8.10
2019-05-05T19:44:45.626Z,8.00
2019-05-05T19:47:18.143Z,8.00
2019-05-05T19:49:49.606Z,8.00
2019-05-05T19:52:19.564Z,7.90
2019-05-05T19:54:49.456Z,7.90
2019-05-05T19:57:19.062Z,7.90
2019-05-05T19:59:48.903Z,7.80
2019-05-05T20:02:19.299Z,7.80
2019-05-05T20:04:49.022Z,7.70
2019-05-05T20:07:18.796Z,7.70
2019-05-05T20:09:48.628Z,7.70
2019-05-05T20:12:20.875Z,7.60
2019-05-05T20:14:54.412Z,7.60
2019-05-05T20:17:26.133Z,7.60
2019-05-05T20:19:58.662Z,7.50
2019-05-05T20:22:34.984Z,7.50
2019-05-05T20:25:08.807Z,7.50
2019-05-05T20:27:41.416Z,7.40
2019-05-05T20:30:14.276Z,7.30
2019-05-05T20:32:45.687Z,7.30
2019-05-05T20:35:17.203Z,7.10
2019-05-05T20:37:48.587Z,7.10
2019-05-05T20:40:19.979Z,7.10
2019-05-05T20:42:49.811Z,7.10
2019-05-05T20:45:21.171Z,7.10
2019-05-05T20:47:50.998Z,7.00
2019-05-05T20:50:20.988Z,7.00
2019-05-05T20:52:51.141Z,7.00
2019-05-05T20:55:26.102Z,7.00
2019-05-05T20:57:57.548Z,7.00
2019-05-05T21:00:27.450Z,6.90
2019-05-05T21:02:57.078Z,6.80
2019-05-05T21:05:31.654Z,6.80
2019-05-05T21:08:01.484Z,6.80
2019-05-05T21:10:31.287Z,6.80
2019-05-05T21:13:01.068Z,6.80
2019-05-05T21:15:30.911Z,6.80
2019-05-05T21:18:00.692Z,6.80
2019-05-05T21:20:30.560Z,6.80
2019-05-05T21:23:03.676Z,6.80
2019-05-05T21:25:35.483Z,6.80
2019-05-05T21:28:05.409Z,6.80
2019-05-05T21:30:35.307Z,6.70
2019-05-05T21:33:05.242Z,6.70
2019-05-05T21:35:35.199Z,6.70
2019-05-05T21:38:05.037Z,6.60
2019-05-05T21:40:34.871Z,6.60
2019-05-05T21:43:05.170Z,6.60
2019-05-05T21:45:35.304Z,6.60
2019-05-05T21:48:05.213Z,6.60
2019-05-05T21:50:36.724Z,6.60
2019-05-05T21:53:08.201Z,6.60
2019-05-05T21:55:39.701Z,6.60
2019-05-05T21:58:11.017Z,6.50
2019-05-05T22:00:44.246Z,6.50
2019-05-05T22:03:15.579Z,6.50
2019-05-05T22:05:45.500Z,6.50
2019-05-05T22:08:15.246Z,6.50
2019-05-05T22:10:45.100Z,6.40
2019-05-05T22:13:14.908Z,6.40
2019-05-05T22:15:44.715Z,6.40
2019-05-05T22:18:14.599Z,6.40
2019-05-05T22:20:46.098Z,6.40
2019-05-05T22:23:16.133Z,6.40
2019-05-05T22:25:47.060Z,6.40
2019-05-05T22:28:17.049Z,6.30
2019-05-05T22:30:48.218Z,6.30
2019-05-05T22:33:18.175Z,6.30
2019-05-05T22:35:48.319Z,6.20
2019-05-05T22:38:18.265Z,6.20
2019-05-05T22:40:48.201Z,6.20
2019-05-05T22:43:18.156Z,6.20
2019-05-05T22:45:48.102Z,6.20
2019-05-05T22:48:18.100Z,6.10
2019-05-05T22:50:48.042Z,6.10
2019-05-05T22:53:17.935Z,6.10
2019-05-05T22:55:47.914Z,6.10
2019-05-05T22:58:17.836Z,6.00
2019-05-05T23:00:47.831Z,6.00
2019-05-05T23:03:19.363Z,6.00
2019-05-05T23:05:50.863Z,6.00
2019-05-05T23:08:20.883Z,6.00
2019-05-05T23:10:50.803Z,6.00
2019-05-05T23:13:20.751Z,6.00
2019-05-05T23:15:54.324Z,5.90
2019-05-05T23:18:26.411Z,5.90
2019-05-05T23:20:58.502Z,5.90
2019-05-05T23:23:30.042Z,5.90
2019-05-05T23:26:03.771Z,5.90
2019-05-05T23:28:33.892Z,5.90
2019-05-05T23:31:04.040Z,5.90
2019-05-05T23:33:34.546Z,5.90
2019-05-05T23:36:04.731Z,5.90
2019-05-05T23:38:34.849Z,5.90
2019-05-05T23:41:04.807Z,5.90
2019-05-05T23:43:34.723Z,5.90
2019-05-05T23:46:04.681Z,5.80
2019-05-05T23:48:34.870Z,5.80
2019-05-05T23:51:04.886Z,5.80
2019-05-05T23:53:34.807Z,5.80
2019-05-05T23:56:05.771Z,5.80
2019-05-05T23:58:35.696Z,5.70
